createdAt,value
2017-12-19T00:01:30.063Z,17.52
2017-12-19T00:03:57.511Z,14.73
2017-12-19T00:06:25.719Z,16.23
2017-12-19T00:08:53.179Z,15.75
2017-12-19T00:11:21.422Z,15.38
2017-12-19T00:13:48.867Z,18.80
2017-12-19T00:16:16.390Z,18.50
2017-12-19T00:18:43.824Z,19.23
2017-12-19T00:21:11.260Z,18.15
2017-12-19T00:23:39.529Z,21.08
2017-12-19T00:26:06.960Z,17.05
2017-12-19T00:28:34.427Z,15.60
2017-12-19T00:31:01.873Z,15.27
2017-12-19T00:33:29.940Z,18.25
2017-12-19T00:35:57.416Z,21.58
2017-12-19T00:38:24.892Z,19.73
2017-12-19T00:40:52.458Z,16.80
2017-12-19T00:43:19.929Z,17.83
2017-12-19T00:45:47.379Z,18.05
2017-12-19T00:48:14.817Z,18.80
2017-12-19T00:50:43.907Z,18.10
2017-12-19T00:53:11.437Z,19.15
2017-12-19T00:55:39.005Z,16.73
2017-12-19T00:58:06.460Z,16.73
2017-12-19T01:00:34.730Z,16.48
2017-12-19T01:03:02.188Z,17.60
2017-12-19T01:05:29.641Z,19.30
2017-12-19T01:07:57.084Z,18.70
2017-12-19T01:10:25.275Z,18.02
2017-12-19T01:12:53.500Z,21.75
2017-12-19T01:15:20.962Z,18.37
2017-12-19T01:17:48.448Z,17.27
2017-12-19T01:20:15.875Z,18.80
2017-12-19T01:22:43.404Z,17.75
2017-12-19T01:25:10.855Z,18.80
2017-12-19T01:27:38.360Z,18.92
2017-12-19T01:30:05.803Z,18.65
2017-12-19T01:32:33.252Z,16.73
2017-12-19T01:35:00.694Z,15.38
2017-12-19T01:37:28.171Z,17.92
2017-12-19T01:39:55.624Z,15.48
2017-12-19T01:42:23.056Z,16.98
2017-12-19T01:44:52.004Z,22.92
2017-12-19T01:47:19.439Z,16.98
2017-12-19T01:49:47.675Z,19.65
2017-12-19T01:52:15.123Z,18.55
2017-12-19T01:54:42.590Z,19.17
2017-12-19T01:57:10.789Z,20.45
2017-12-19T01:59:38.259Z,18.83
2017-12-19T02:02:06.460Z,20.08
2017-12-19T02:04:33.921Z,19.20
2017-12-19T02:07:02.755Z,23.10
2017-12-19T02:09:30.187Z,21.00
2017-12-19T02:11:58.413Z,21.30
2017-12-19T02:14:25.835Z,24.63
2017-12-19T02:16:53.300Z,21.10
2017-12-19T02:19:20.833Z,19.70
2017-12-19T02:21:48.326Z,17.75
2017-12-19T02:24:15.771Z,19.40
2017-12-19T02:26:44.000Z,19.08
2017-12-19T02:29:11.464Z,21.45
2017-12-19T02:31:38.912Z,21.77
2017-12-19T02:34:07.127Z,27.10
2017-12-19T02:36:34.668Z,22.50
2017-12-19T02:39:02.931Z,20.90
2017-12-19T02:41:30.396Z,23.65
2017-12-19T02:43:57.832Z,24.87
2017-12-19T02:46:25.321Z,21.92
2017-12-19T02:48:52.795Z,25.67
2017-12-19T02:51:20.347Z,23.40
2017-12-19T02:53:48.571Z,22.62
2017-12-19T02:56:16.040Z,22.60
2017-12-19T02:58:43.504Z,20.75
2017-12-19T03:01:11.635Z,24.58
2017-12-19T03:03:39.127Z,23.48
2017-12-19T03:06:06.593Z,19.92
2017-12-19T03:08:34.023Z,22.58
2017-12-19T03:11:01.516Z,23.30
2017-12-19T03:13:28.972Z,23.73
2017-12-19T03:15:56.447Z,26.05
2017-12-19T03:18:23.880Z,21.27
2017-12-19T03:20:51.373Z,22.77
2017-12-19T03:23:19.593Z,22.62
2017-12-19T03:25:47.058Z,24.63
2017-12-19T03:28:15.261Z,21.55
2017-12-19T03:30:42.736Z,22.20
2017-12-19T03:33:10.184Z,20.10
2017-12-19T03:35:38.439Z,21.25
2017-12-19T03:38:05.879Z,23.35
2017-12-19T03:40:33.331Z,21.77
2017-12-19T03:43:01.612Z,21.40
2017-12-19T03:45:29.849Z,19.40
2017-12-19T03:47:57.332Z,25.83
2017-12-19T03:50:24.813Z,23.65
2017-12-19T03:52:52.283Z,23.77
2017-12-19T03:55:19.739Z,21.17
2017-12-19T03:57:47.218Z,17.37
2017-12-19T04:00:14.663Z,22.08
2017-12-19T04:02:42.880Z,23.62
2017-12-19T04:05:11.271Z,20.67
2017-12-19T04:07:38.745Z,23.12
2017-12-19T04:10:06.825Z,20.77
2017-12-19T04:12:35.068Z,23.87
2017-12-19T04:15:02.521Z,21.37
2017-12-19T04:17:29.980Z,19.17
2017-12-19T04:19:57.439Z,20.75
2017-12-19T04:22:25.664Z,19.55
2017-12-19T04:24:53.169Z,19.70
2017-12-19T04:27:20.604Z,20.55
2017-12-19T04:29:48.066Z,17.20
2017-12-19T04:32:15.512Z,19.62
2017-12-19T04:34:43.755Z,18.87
2017-12-19T04:37:11.212Z,19.77
2017-12-19T04:39:38.705Z,20.88
2017-12-19T04:42:06.175Z,19.95
2017-12-19T04:44:33.654Z,17.08
2017-12-19T04:47:01.098Z,23.92
2017-12-19T04:49:29.306Z,18.20
2017-12-19T04:51:56.820Z,19.60
2017-12-19T04:54:24.247Z,18.70
2017-12-19T04:56:51.731Z,18.70
2017-12-19T04:59:19.198Z,21.83
2017-12-19T05:01:46.655Z,19.25
2017-12-19T05:04:14.852Z,20.50
2017-12-19T05:06:43.128Z,18.85
2017-12-19T05:09:10.566Z,21.08
2017-12-19T05:11:38.026Z,17.90
2017-12-19T05:14:05.488Z,20.92
2017-12-19T05:16:32.963Z,22.70
2017-12-19T05:19:00.423Z,19.67
2017-12-19T05:21:28.622Z,20.58
2017-12-19T05:23:56.079Z,21.20
2017-12-19T05:26:24.327Z,22.02
2017-12-19T05:28:51.792Z,23.73
2017-12-19T05:31:19.284Z,21.85
2017-12-19T05:33:46.738Z,24.40
2017-12-19T05:36:14.190Z,23.58
2017-12-19T05:38:41.643Z,20.67
2017-12-19T05:41:09.916Z,20.10
2017-12-19T05:43:37.376Z,19.05
2017-12-19T05:46:04.868Z,18.55
2017-12-19T05:48:32.312Z,22.98
2017-12-19T05:50:59.832Z,23.48
2017-12-19T05:53:27.247Z,23.25
2017-12-19T05:55:54.765Z,19.12
2017-12-19T05:58:22.195Z,19.92
2017-12-19T06:00:49.656Z,24.85
2017-12-19T06:03:17.676Z,19.12
2017-12-19T06:05:45.143Z,20.83
2017-12-19T06:08:12.584Z,24.17
2017-12-19T06:10:40.074Z,23.98
2017-12-19T06:13:07.550Z,20.85
2017-12-19T06:15:35.271Z,20.60
2017-12-19T06:18:02.735Z,22.00
2017-12-19T06:20:30.186Z,21.42
2017-12-19T06:22:57.639Z,21.20
2017-12-19T06:25:25.850Z,19.12
2017-12-19T06:27:53.307Z,20.37
2017-12-19T06:30:21.517Z,20.05
2017-12-19T06:32:49.837Z,19.80
2017-12-19T06:35:17.312Z,20.83
2017-12-19T06:37:44.785Z,18.87
2017-12-19T06:40:12.254Z,24.17
2017-12-19T06:42:39.719Z,21.60
2017-12-19T06:45:07.196Z,17.60
2017-12-19T06:47:34.636Z,22.30
2017-12-19T06:50:02.856Z,27.25
2017-12-19T06:52:30.339Z,21.80
2017-12-19T06:54:58.599Z,22.95
2017-12-19T06:57:27.488Z,19.58
2017-12-19T06:59:54.949Z,20.48
2017-12-19T07:02:22.375Z,23.00
2017-12-19T07:04:49.845Z,23.85
2017-12-19T07:07:17.301Z,25.10
2017-12-19T07:09:45.556Z,23.65
2017-12-19T07:12:12.999Z,19.87
2017-12-19T07:14:40.427Z,24.12
2017-12-19T07:17:07.879Z,23.10
2017-12-19T07:19:36.021Z,24.63
2017-12-19T07:22:03.493Z,24.58
2017-12-19T07:24:31.702Z,26.20
2017-12-19T07:26:59.972Z,22.52
2017-12-19T07:29:28.193Z,20.70
2017-12-19T07:31:55.674Z,21.08
2017-12-19T07:34:26.989Z,19.33
2017-12-19T07:36:55.223Z,23.20
2017-12-19T07:39:22.732Z,19.35
2017-12-19T07:41:50.186Z,22.35
2017-12-19T07:44:17.640Z,24.00
2017-12-19T07:46:45.080Z,22.83
2017-12-19T07:49:13.319Z,20.23
2017-12-19T07:51:40.756Z,22.87
2017-12-19T07:54:08.979Z,22.25
2017-12-19T07:56:36.475Z,21.37
2017-12-19T07:59:03.950Z,20.85
2017-12-19T08:01:31.404Z,25.05
2017-12-19T08:03:58.885Z,24.67
2017-12-19T08:06:26.359Z,23.40
2017-12-19T08:08:53.832Z,21.30
2017-12-19T08:11:21.286Z,21.15
2017-12-19T08:13:48.737Z,20.20
2017-12-19T08:16:16.644Z,22.25
2017-12-19T08:18:44.120Z,22.52
2017-12-19T08:21:12.381Z,21.25
2017-12-19T08:23:39.807Z,20.33
2017-12-19T08:26:08.115Z,23.85
2017-12-19T08:28:36.487Z,23.05
2017-12-19T08:31:03.968Z,22.27
2017-12-19T08:33:35.566Z,18.40
2017-12-19T08:36:03.028Z,19.15
2017-12-19T08:38:30.477Z,19.10
2017-12-19T08:40:57.940Z,20.27
2017-12-19T08:43:26.249Z,17.60
2017-12-19T08:45:53.691Z,22.95
2017-12-19T08:48:21.939Z,18.08
2017-12-19T08:50:49.404Z,19.37
2017-12-19T08:53:16.856Z,22.33
2017-12-19T08:55:44.304Z,18.00
2017-12-19T08:58:11.759Z,15.38
2017-12-19T09:00:39.199Z,17.62
2017-12-19T09:03:06.663Z,20.70
2017-12-19T09:05:34.106Z,19.62
2017-12-19T09:08:02.331Z,19.92
2017-12-19T09:10:29.772Z,19.42
2017-12-19T09:12:57.991Z,20.52
2017-12-19T09:15:26.150Z,17.08
2017-12-19T09:17:53.947Z,17.45
2017-12-19T09:20:22.156Z,19.60
2017-12-19T09:22:49.594Z,19.98
2017-12-19T09:25:17.051Z,21.23
2017-12-19T09:27:44.484Z,18.42
2017-12-19T09:30:12.295Z,21.67
2017-12-19T09:32:40.595Z,17.83
2017-12-19T09:35:08.073Z,19.83
2017-12-19T09:37:35.516Z,18.40
2017-12-19T09:40:03.483Z,18.85
2017-12-19T09:42:30.932Z,18.77
2017-12-19T09:44:58.400Z,24.77
2017-12-19T09:47:25.833Z,22.05
2017-12-19T09:49:53.371Z,18.62
2017-12-19T09:52:21.643Z,18.85
2017-12-19T09:54:49.084Z,25.08
2017-12-19T09:57:16.527Z,24.17
2017-12-19T09:59:43.995Z,24.00
2017-12-19T10:02:12.244Z,22.02
2017-12-19T10:04:39.678Z,20.80
2017-12-19T10:07:07.200Z,21.85
2017-12-19T10:09:34.643Z,25.40
2017-12-19T10:12:02.124Z,18.95
2017-12-19T10:14:29.580Z,26.20
2017-12-19T10:16:57.037Z,21.70
2017-12-19T10:19:25.743Z,21.90
2017-12-19T10:21:53.947Z,18.45
2017-12-19T10:24:21.441Z,21.40
2017-12-19T10:26:49.599Z,22.65
2017-12-19T10:29:18.464Z,21.10
2017-12-19T10:31:45.924Z,24.52
2017-12-19T10:34:13.409Z,22.35
2017-12-19T10:36:40.843Z,28.50
2017-12-19T10:39:08.308Z,18.80
2017-12-19T10:41:36.524Z,22.73
2017-12-19T10:44:03.975Z,24.52
2017-12-19T10:46:31.447Z,25.40
2017-12-19T10:48:59.680Z,25.08
2017-12-19T10:51:27.203Z,24.80
2017-12-19T10:53:55.272Z,25.98
2017-12-19T10:56:22.721Z,24.25
2017-12-19T10:58:50.207Z,23.00
2017-12-19T11:01:17.644Z,26.85
2017-12-19T11:03:45.198Z,23.80
2017-12-19T11:06:14.243Z,20.40
2017-12-19T11:08:41.715Z,22.98
2017-12-19T11:11:09.163Z,25.62
2017-12-19T11:13:37.396Z,25.65
2017-12-19T11:16:04.884Z,26.87
2017-12-19T11:18:32.360Z,22.58
2017-12-19T11:20:59.800Z,23.33
2017-12-19T11:23:27.269Z,22.80
2017-12-19T11:25:54.703Z,21.20
2017-12-19T11:28:22.163Z,21.25
2017-12-19T11:30:49.595Z,21.62
2017-12-19T11:33:17.479Z,20.77
2017-12-19T11:35:44.941Z,21.83
2017-12-19T11:38:13.193Z,19.92
2017-12-19T11:40:40.655Z,20.98
2017-12-19T11:43:08.133Z,20.40
2017-12-19T11:45:35.595Z,18.40
2017-12-19T11:48:03.037Z,21.23
2017-12-19T11:50:31.271Z,19.60
2017-12-19T11:52:58.931Z,16.17
2017-12-19T11:55:26.376Z,16.83
2017-12-19T11:57:54.583Z,15.15
2017-12-19T12:00:22.060Z,15.07
2017-12-19T12:02:49.499Z,13.98
2017-12-19T12:05:16.964Z,14.10
2017-12-19T12:07:44.456Z,17.67
2017-12-19T12:10:11.922Z,18.85
2017-12-19T12:12:39.354Z,21.25
2017-12-19T12:15:06.793Z,20.20
2017-12-19T12:17:35.028Z,23.10
2017-12-19T12:20:02.459Z,19.42
2017-12-19T12:22:29.954Z,21.33
2017-12-19T12:24:57.404Z,21.70
2017-12-19T12:27:25.624Z,21.67
2017-12-19T12:29:53.061Z,19.37
2017-12-19T12:32:21.356Z,21.60
2017-12-19T12:34:48.839Z,23.87
2017-12-19T12:37:16.260Z,21.75
2017-12-19T12:39:43.723Z,21.58
2017-12-19T12:42:11.167Z,23.20
2017-12-19T12:44:39.426Z,21.60
2017-12-19T12:47:06.879Z,24.63
2017-12-19T12:49:34.366Z,18.30
2017-12-19T12:52:01.831Z,21.65
2017-12-19T12:54:29.300Z,19.87
2017-12-19T12:56:56.761Z,25.62
2017-12-19T12:59:24.192Z,20.05
2017-12-19T13:01:51.667Z,25.95
2017-12-19T13:04:19.311Z,22.85
2017-12-19T13:06:47.400Z,21.12
2017-12-19T13:09:14.838Z,20.95
2017-12-19T13:11:42.339Z,25.45
2017-12-19T13:14:09.771Z,21.85
2017-12-19T13:16:38.003Z,29.27
2017-12-19T13:19:05.434Z,24.42
2017-12-19T13:21:33.679Z,21.75
2017-12-19T13:24:01.124Z,20.50
2017-12-19T13:26:28.584Z,20.50
2017-12-19T13:28:56.783Z,21.27
2017-12-19T13:31:24.233Z,21.17
2017-12-19T13:33:51.742Z,21.85
2017-12-19T13:36:19.957Z,23.23
2017-12-19T13:38:47.423Z,20.88
2017-12-19T13:41:14.850Z,19.05
2017-12-19T13:43:42.313Z,17.77
2017-12-19T13:46:09.828Z,14.93
2017-12-19T13:48:38.023Z,14.07
2017-12-19T13:51:05.471Z,11.63
2017-12-19T13:53:32.918Z,12.20
2017-12-19T13:56:00.375Z,12.32
2017-12-19T13:58:27.830Z,14.73
2017-12-19T14:00:55.263Z,10.07
2017-12-19T14:03:22.760Z,11.65
2017-12-19T14:05:50.949Z,8.85
2017-12-19T14:08:19.159Z,12.37
2017-12-19T14:10:47.263Z,12.85
2017-12-19T14:13:14.721Z,15.57
2017-12-19T14:15:42.179Z,10.50
2017-12-19T14:18:10.380Z,13.77
2017-12-19T14:20:38.653Z,18.60
2017-12-19T14:23:06.858Z,15.98
2017-12-19T14:25:35.083Z,12.25
2017-12-19T14:28:02.577Z,14.50
2017-12-19T14:30:30.051Z,14.77
2017-12-19T14:32:57.510Z,16.50
2017-12-19T14:35:24.969Z,14.38
2017-12-19T14:37:52.463Z,16.15
2017-12-19T14:40:19.930Z,16.02
2017-12-19T14:42:47.383Z,17.00
2017-12-19T14:45:14.847Z,15.75
2017-12-19T14:47:43.067Z,20.92
2017-12-19T14:50:10.501Z,18.02
2017-12-19T14:52:38.735Z,22.62
2017-12-19T14:55:06.183Z,16.05
2017-12-19T14:57:34.395Z,21.77
2017-12-19T15:00:01.896Z,20.35
2017-12-19T15:02:29.366Z,19.98
2017-12-19T15:04:56.820Z,17.80
2017-12-19T15:07:24.271Z,21.15
2017-12-19T15:09:52.507Z,20.62
2017-12-19T15:12:19.943Z,20.55
2017-12-19T15:14:48.164Z,21.15
2017-12-19T15:17:15.686Z,18.67
2017-12-19T15:19:43.231Z,22.05
2017-12-19T15:22:10.683Z,17.87
2017-12-19T15:24:38.123Z,19.55
2017-12-19T15:27:06.180Z,19.00
2017-12-19T15:29:33.612Z,23.73
2017-12-19T15:32:01.075Z,18.90
2017-12-19T15:34:28.526Z,20.27
2017-12-19T15:36:55.983Z,22.65
2017-12-19T15:39:23.424Z,21.33
2017-12-19T15:41:51.847Z,22.70
2017-12-19T15:44:19.840Z,21.17
2017-12-19T15:46:47.307Z,20.30
2017-12-19T15:49:14.792Z,28.30
2017-12-19T15:51:42.264Z,21.00
2017-12-19T15:54:09.748Z,26.20
2017-12-19T15:56:37.187Z,23.38
2017-12-19T15:59:04.648Z,19.98
2017-12-19T16:01:32.149Z,25.00
2017-12-19T16:03:59.605Z,24.45
2017-12-19T16:06:27.046Z,20.95
2017-12-19T16:08:54.507Z,25.05
2017-12-19T16:11:21.944Z,21.98
2017-12-19T16:13:49.392Z,22.33
2017-12-19T16:16:16.827Z,22.98
2017-12-19T16:18:44.292Z,24.42
2017-12-19T16:21:11.756Z,22.05
2017-12-19T16:23:39.194Z,20.08
2017-12-19T16:26:06.648Z,22.85
2017-12-19T16:28:34.867Z,21.60
2017-12-19T16:31:02.392Z,21.50
2017-12-19T16:33:30.648Z,27.85
2017-12-19T16:35:58.106Z,22.48
2017-12-19T16:38:25.574Z,20.37
2017-12-19T16:40:53.815Z,24.67
2017-12-19T16:43:21.247Z,23.55
2017-12-19T16:45:48.704Z,24.20
2017-12-19T16:48:16.916Z,23.05
2017-12-19T16:50:44.422Z,20.15
2017-12-19T16:53:11.883Z,22.58
2017-12-19T16:55:39.296Z,22.90
2017-12-19T16:58:06.793Z,23.12
2017-12-19T17:00:35.012Z,21.42
2017-12-19T17:03:02.499Z,23.02
2017-12-19T17:05:29.927Z,24.02
2017-12-19T17:07:58.155Z,27.45
2017-12-19T17:10:25.592Z,27.87
2017-12-19T17:12:53.835Z,24.45
2017-12-19T17:15:21.293Z,26.35
2017-12-19T17:17:48.839Z,24.17
2017-12-19T17:20:17.094Z,26.70
2017-12-19T17:22:44.547Z,27.33
2017-12-19T17:25:12.461Z,31.10
2017-12-19T17:27:39.955Z,25.35
2017-12-19T17:30:07.418Z,25.15
2017-12-19T17:32:34.859Z,27.80
2017-12-19T17:35:02.326Z,25.55
2017-12-19T17:37:29.788Z,29.70
2017-12-19T17:40:01.416Z,24.65
2017-12-19T17:42:28.849Z,25.33
2017-12-19T17:44:56.320Z,22.62
2017-12-19T17:47:23.779Z,29.95
2017-12-19T17:49:51.216Z,24.50
2017-12-19T17:52:18.675Z,27.15
2017-12-19T17:54:46.137Z,25.50
2017-12-19T17:57:13.588Z,27.95
2017-12-19T17:59:42.000Z,25.25
2017-12-19T18:02:09.457Z,28.35
2017-12-19T18:04:36.910Z,29.48
2017-12-19T18:07:05.119Z,30.08
2017-12-19T18:09:33.280Z,29.00
2017-12-19T18:12:01.503Z,27.52
2017-12-19T18:14:28.943Z,32.95
2017-12-19T18:16:56.390Z,41.92
2017-12-19T18:19:23.840Z,29.05
2017-12-19T18:21:51.280Z,26.05
2017-12-19T18:24:19.496Z,30.00
2017-12-19T18:26:47.748Z,23.98
2017-12-19T18:29:15.255Z,31.75
2017-12-19T18:31:42.687Z,26.23
2017-12-19T18:34:10.148Z,33.30
2017-12-19T18:36:37.597Z,33.55
2017-12-19T18:39:05.078Z,29.50
2017-12-19T18:41:32.579Z,30.52
2017-12-19T18:44:00.074Z,27.00
2017-12-19T18:46:27.517Z,28.38
2017-12-19T18:48:54.956Z,27.95
2017-12-19T18:51:22.448Z,27.58
2017-12-19T18:53:49.917Z,29.00
2017-12-19T18:56:17.413Z,30.05
2017-12-19T18:58:44.883Z,25.85
2017-12-19T19:01:12.384Z,28.20
2017-12-19T19:03:39.825Z,27.35
2017-12-19T19:06:07.322Z,29.20
2017-12-19T19:08:34.762Z,30.17
2017-12-19T19:11:02.277Z,27.83
2017-12-19T19:13:29.733Z,31.10
2017-12-19T19:15:57.356Z,29.15
2017-12-19T19:18:25.159Z,31.70
2017-12-19T19:20:52.603Z,28.77
2017-12-19T19:23:20.077Z,31.12
2017-12-19T19:25:47.526Z,24.60
2017-12-19T19:28:14.991Z,27.90
2017-12-19T19:30:42.448Z,31.52
2017-12-19T19:33:09.895Z,30.00
2017-12-19T19:35:37.398Z,32.42
2017-12-19T19:38:04.872Z,25.80
2017-12-19T19:40:32.341Z,26.37
2017-12-19T19:42:59.787Z,30.17
2017-12-19T19:45:27.248Z,36.67
2017-12-19T19:47:54.752Z,29.17
2017-12-19T19:50:23.079Z,31.80
2017-12-19T19:52:50.561Z,27.25
2017-12-19T19:55:18.011Z,29.37
2017-12-19T19:57:45.496Z,31.95
2017-12-19T20:00:13.008Z,28.92
2017-12-19T20:02:40.457Z,29.77
2017-12-19T20:05:07.987Z,24.37
2017-12-19T20:07:35.432Z,23.65
2017-12-19T20:10:02.920Z,24.25
2017-12-19T20:12:30.363Z,23.42
2017-12-19T20:14:57.819Z,22.20
2017-12-19T20:17:25.307Z,21.00
2017-12-19T20:19:52.783Z,19.85
2017-12-19T20:22:20.257Z,23.30
2017-12-19T20:24:47.695Z,21.92
2017-12-19T20:27:15.945Z,26.95
2017-12-19T20:29:43.390Z,25.20
2017-12-19T20:32:10.882Z,26.37
2017-12-19T20:34:42.695Z,24.87
2017-12-19T20:37:10.160Z,22.48
2017-12-19T20:39:37.588Z,20.12
2017-12-19T20:42:05.108Z,25.23
2017-12-19T20:44:32.551Z,22.27
2017-12-19T20:46:59.993Z,23.65
2017-12-19T20:49:28.816Z,21.12
2017-12-19T20:51:56.283Z,18.00
2017-12-19T20:54:23.731Z,20.10
2017-12-19T20:56:51.936Z,19.75
2017-12-19T20:59:20.157Z,21.35
2017-12-19T21:01:47.600Z,24.60
2017-12-19T21:04:15.808Z,20.48
2017-12-19T21:06:43.271Z,21.98
2017-12-19T21:09:11.502Z,19.85
2017-12-19T21:11:38.972Z,16.77
2017-12-19T21:14:06.442Z,17.08
2017-12-19T21:16:34.393Z,20.12
2017-12-19T21:19:02.618Z,23.55
2017-12-19T21:21:30.047Z,14.52
2017-12-19T21:23:57.525Z,16.52
2017-12-19T21:26:25.032Z,13.70
2017-12-19T21:28:52.479Z,16.87
2017-12-19T21:31:20.726Z,14.95
2017-12-19T21:33:48.226Z,16.70
2017-12-19T21:36:15.691Z,15.68
2017-12-19T21:38:43.120Z,14.05
2017-12-19T21:41:10.729Z,15.82
2017-12-19T21:43:38.195Z,16.33
2017-12-19T21:46:05.754Z,14.52
2017-12-19T21:48:37.065Z,15.40
2017-12-19T21:51:04.590Z,12.90
2017-12-19T21:53:33.396Z,14.93
2017-12-19T21:56:05.024Z,15.55
2017-12-19T21:58:32.505Z,17.25
2017-12-19T22:00:59.963Z,17.37
2017-12-19T22:03:27.395Z,18.33
2017-12-19T22:05:59.703Z,22.42
2017-12-19T22:08:28.121Z,16.25
2017-12-19T22:10:59.403Z,16.42
2017-12-19T22:13:26.855Z,17.15
2017-12-19T22:15:58.526Z,18.05
2017-12-19T22:18:29.903Z,18.20
2017-12-19T22:20:57.380Z,17.58
2017-12-19T22:23:24.835Z,13.95
2017-12-19T22:25:52.305Z,15.73
2017-12-19T22:28:21.269Z,20.27
2017-12-19T22:30:49.486Z,13.30
2017-12-19T22:33:16.959Z,16.23
2017-12-19T22:35:44.415Z,12.93
2017-12-19T22:38:11.876Z,14.95
2017-12-19T22:40:40.086Z,14.60
2017-12-19T22:43:07.540Z,15.90
2017-12-19T22:45:35.743Z,13.27
2017-12-19T22:48:04.210Z,18.25
2017-12-19T22:50:31.638Z,14.40
2017-12-19T22:52:59.143Z,16.25
2017-12-19T22:55:26.593Z,16.12
2017-12-19T22:57:54.050Z,15.02
2017-12-19T23:00:21.505Z,17.62
2017-12-19T23:02:49.726Z,16.37
2017-12-19T23:05:17.208Z,14.52
2017-12-19T23:07:44.695Z,17.40
2017-12-19T23:10:12.146Z,17.50
2017-12-19T23:12:43.305Z,20.60
2017-12-19T23:15:10.918Z,19.15
2017-12-19T23:17:38.379Z,18.83
2017-12-19T23:20:05.844Z,18.62
2017-12-19T23:22:33.303Z,18.15
2017-12-19T23:25:04.788Z,20.83
2017-12-19T23:27:32.209Z,19.52
2017-12-19T23:29:59.688Z,20.05
2017-12-19T23:32:27.138Z,21.25
2017-12-19T23:34:54.594Z,24.00
2017-12-19T23:37:22.058Z,20.50
2017-12-19T23:39:49.527Z,16.17
2017-12-19T23:42:16.959Z,18.77
2017-12-19T23:44:44.447Z,20.62
2017-12-19T23:47:12.684Z,17.35
2017-12-19T23:49:40.124Z,17.73
2017-12-19T23:52:08.350Z,20.35
2017-12-19T23:54:35.784Z,18.87
2017-12-19T23:57:04.008Z,20.90
2017-12-19T23:59:31.453Z,18.83
